Time;durP1;ratioP1;P1;durP2;ratioP2;P2;SDS_P1;SDS_P2;PMS_P1;PMS_P2;Temp;Humidity;BMP_temperature;BMP_pressure;BME280_temperature;BME280_humidity;BME280_pressure;Samples;Min_cycle;Max_cycle;Signal;HPM_P1;HPM_P2
2022/09/01 00:01:19;;;;;;;4.33;1.70;;;;;;;13.68;83.17;96879.53;1755353;80;20972;-89
2022/09/01 00:03:51;;;;;;;2.85;1.50;;;;;;;13.68;83.42;96883.95;1745114;82;21013;-88
2022/09/01 00:06:21;;;;;;;2.67;1.32;;;;;;;13.69;83.63;96882.95;1756247;79;21020;-88
2022/09/01 00:08:44;;;;;;;2.60;1.62;;;;;;;13.68;83.95;96880.84;1734306;80;21101;-88
2022/09/01 00:11:10;;;;;;;5.70;2.08;;;;;;;13.67;83.88;96881.83;1735707;81;20988;-88
2022/09/01 00:13:37;;;;;;;4.00;2.10;;;;;;;13.67;83.68;96872.69;1703571;82;20973;-88
2022/09/01 00:16:04;;;;;;;3.08;1.50;;;;;;;13.64;82.84;96871.74;1757058;79;21016;-88
2022/09/01 00:18:34;;;;;;;4.40;1.80;;;;;;;13.63;83.14;96872.73;1733874;81;21015;-88
2022/09/01 00:21:00;;;;;;;3.65;1.57;;;;;;;13.64;83.45;96871.74;1771957;79;21036;-88
2022/09/01 00:23:26;;;;;;;3.20;1.52;;;;;;;13.63;83.34;96871.44;1762789;80;21087;-89
2022/09/01 00:25:52;;;;;;;4.37;1.60;;;;;;;13.61;83.61;96875.23;1740954;80;21027;-89
2022/09/01 00:28:19;;;;;;;3.33;1.57;;;;;;;13.61;83.73;96873.43;1716173;82;20936;-88
2022/09/01 00:30:45;;;;;;;4.42;1.55;;;;;;;13.63;83.86;96867.52;1773555;79;21020;-89
2022/09/01 00:33:10;;;;;;;3.42;1.32;;;;;;;13.61;83.58;96860.87;1777777;79;21012;-89
2022/09/01 00:35:36;;;;;;;3.50;1.57;;;;;;;13.59;83.57;96864.17;1777843;79;20968;-89
2022/09/01 00:38:02;;;;;;;3.22;1.55;;;;;;;13.60;83.86;96865.78;1786991;79;20940;-89
2022/09/01 00:40:28;;;;;;;2.15;1.30;;;;;;;13.59;83.34;96862.37;1791039;78;21013;-88
2022/09/01 00:42:54;;;;;;;4.83;1.47;;;;;;;13.59;83.31;96861.56;1778026;79;21004;-88
2022/09/01 00:45:22;;;;;;;2.35;1.10;;;;;;;13.55;83.19;96855.92;1777859;78;21283;-88
2022/09/01 00:47:48;;;;;;;2.87;1.20;;;;;;;13.54;83.18;96860.02;1753732;79;21024;-88
2022/09/01 00:50:16;;;;;;;2.35;0.98;;;;;;;13.54;83.22;96858.72;1747376;82;20968;-88
2022/09/01 00:52:51;;;;;;;1.82;1.10;;;;;;;13.54;82.43;96860.83;1747558;81;20977;-89
2022/09/01 00:55:22;;;;;;;2.80;1.55;;;;;;;13.56;83.00;96852.81;1769735;78;21035;-89
2022/09/01 00:57:50;;;;;;;1.77;1.32;;;;;;;13.57;83.05;96851.31;1747022;80;21027;-89
2022/09/01 01:00:19;;;;;;;4.15;1.20;;;;;;;13.57;82.87;96847.39;1731036;79;21087;-89
2022/09/01 01:02:54;;;;;;;3.20;1.20;;;;;;;13.59;82.87;96849.31;1777843;81;20980;-89
2022/09/01 01:05:20;;;;;;;2.75;0.93;;;;;;;13.61;82.66;96852.54;1764770;80;20948;-89
2022/09/01 01:07:48;;;;;;;2.17;1.00;;;;;;;13.64;82.30;96853.46;1752307;81;20998;-89
2022/09/01 01:10:15;;;;;;;2.85;1.07;;;;;;;13.65;82.27;96852.47;1749217;81;20997;-88
2022/09/01 01:12:42;;;;;;;1.52;0.80;;;;;;;13.67;81.91;96851.80;1777803;79;21036;-89
2022/09/01 01:15:12;;;;;;;3.50;1.30;;;;;;;13.68;81.94;96846.89;1777897;81;21044;-90
2022/09/01 01:17:38;;;;;;;2.47;0.90;;;;;;;13.68;81.84;96846.08;1751923;79;20945;-89
2022/09/01 01:23:01;;;;;;;3.87;0.80;;;;;;;13.59;81.83;96840.17;1776352;79;21008;-89
2022/09/01 01:25:34;;;;;;;2.30;1.07;;;;;;;13.63;81.84;96841.41;1777755;79;20973;-89
2022/09/01 01:28:10;;;;;;;2.58;1.00;;;;;;;13.59;80.99;96844.09;1774673;79;21011;-89
2022/09/01 01:30:38;;;;;;;3.00;1.05;;;;;;;13.57;81.60;96845.28;1738216;81;21072;-89
2022/09/01 01:33:05;;;;;;;2.52;1.10;;;;;;;13.52;81.24;96843.25;1750520;81;20967;-88
2022/09/01 01:35:32;;;;;;;1.57;1.30;;;;;;;13.48;80.74;96849.31;1764245;80;21030;-89
2022/09/01 01:37:59;;;;;;;2.10;0.75;;;;;;;13.45;80.74;96843.67;1736754;81;21051;-89
2022/09/01 01:40:27;;;;;;;1.57;0.90;;;;;;;13.43;80.63;96849.58;1740234;82;21080;-89
2022/09/01 01:42:56;;;;;;;2.35;0.98;;;;;;;13.42;80.36;96846.16;1735290;80;21003;-89
2022/09/01 01:45:23;;;;;;;1.60;1.00;;;;;;;13.41;79.68;96844.55;1748225;82;20973;-90
2022/09/01 01:47:55;;;;;;;1.77;0.82;;;;;;;13.41;79.95;96848.97;1764024;81;20976;-89
2022/09/01 01:50:24;;;;;;;2.90;0.82;;;;;;;13.42;80.10;96847.97;1763565;81;20916;-89
2022/09/01 01:52:50;;;;;;;1.85;1.00;;;;;;;13.42;80.01;96843.55;1757788;80;21047;-89
2022/09/01 01:55:18;;;;;;;3.25;1.00;;;;;;;13.45;80.32;96847.59;1726059;80;21021;-89
2022/09/01 01:57:49;;;;;;;1.70;1.02;;;;;;;13.44;79.95;96844.17;1748032;82;20925;-88
2022/09/01 02:00:18;;;;;;;3.10;1.10;;;;;;;13.43;79.92;96853.00;1761718;81;21054;-89
2022/09/01 02:02:42;;;;;;;3.08;1.20;;;;;;;13.43;79.88;96848.28;1757619;81;21011;-89
2022/09/01 02:05:11;;;;;;;1.50;1.02;;;;;;;13.44;80.31;96842.87;1738936;82;21028;-89
2022/09/01 02:07:39;;;;;;;2.55;1.00;;;;;;;13.44;80.43;96839.45;1733748;80;21081;-89
2022/09/01 02:10:11;;;;;;;3.98;1.10;;;;;;;13.42;79.99;96839.64;1735102;80;21092;-89
2022/09/01 02:12:40;;;;;;;3.45;1.15;;;;;;;13.42;80.29;96837.03;1763751;81;20952;-89
2022/09/01 02:15:10;;;;;;;1.77;1.00;;;;;;;13.43;80.34;96837.34;1742830;81;21029;-88
2022/09/01 02:17:38;;;;;;;3.08;1.30;;;;;;;13.42;80.26;96837.03;1757646;79;21019;-89
2022/09/01 02:20:06;;;;;;;1.32;0.90;;;;;;;13.45;80.94;96841.87;1737606;81;20944;-89
2022/09/01 02:22:32;;;;;;;4.05;1.30;;;;;;;13.47;81.34;96832.05;1733534;80;21000;-89
2022/09/01 02:24:59;;;;;;;1.35;0.88;;;;;;;13.50;81.00;96841.30;1764142;81;21028;-89
2022/09/01 02:27:28;;;;;;;3.17;1.20;;;;;;;13.51;80.62;96835.11;1764019;81;21020;-89
2022/09/01 02:29:54;;;;;;;2.77;1.02;;;;;;;13.50;80.28;96836.91;1720736;82;21044;-89
2022/09/01 02:32:21;;;;;;;3.02;1.05;;;;;;;13.52;80.25;96838.02;1746428;79;21084;-89
2022/09/01 02:34:52;;;;;;;2.75;1.00;;;;;;;13.51;80.06;96840.33;1746491;79;20997;-89
2022/09/01 02:37:24;;;;;;;3.47;1.20;;;;;;;13.48;80.10;96841.98;1728534;82;21338;-89
2022/09/01 02:39:56;;;;;;;1.80;0.98;;;;;;;13.44;80.00;96836.84;1748186;82;20993;-89
2022/09/01 02:42:26;;;;;;;2.25;1.20;;;;;;;13.38;80.08;96841.02;1747187;79;20996;-88
2022/09/01 02:44:50;;;;;;;1.90;1.05;;;;;;;13.32;80.22;96841.75;1747961;81;21004;-89
2022/09/01 02:47:16;;;;;;;2.55;0.82;;;;;;;13.27;80.35;96840.70;1747836;82;20960;-88
2022/09/01 02:49:42;;;;;;;2.98;1.10;;;;;;;13.25;80.74;96841.39;1748001;82;20973;-89
2022/09/01 02:52:09;;;;;;;2.42;1.00;;;;;;;13.24;80.68;96841.09;1748108;82;20972;-89
2022/09/01 02:54:35;;;;;;;1.67;1.10;;;;;;;13.21;80.69;96841.77;1747979;79;20972;-89
2022/09/01 02:57:02;;;;;;;2.05;1.40;;;;;;;13.18;80.56;96843.95;1725195;81;21000;-89
2022/09/01 02:59:29;;;;;;;2.62;0.70;;;;;;;13.14;80.78;96843.96;1747895;82;20996;-89
2022/09/01 03:01:57;;;;;;;2.58;1.85;;;;;;;13.10;80.99;96838.81;1748122;80;21026;-89
2022/09/01 03:04:26;;;;;;;4.42;1.20;;;;;;;13.07;80.95;96846.52;1748017;80;20968;-89
2022/09/01 03:06:57;;;;;;;3.05;1.10;;;;;;;13.05;81.12;96846.40;1740896;82;20952;-89
2022/09/01 03:09:20;;;;;;;3.52;1.32;;;;;;;13.04;81.16;96842.98;1716362;82;20953;-89
2022/09/01 03:11:51;;;;;;;2.30;0.85;;;;;;;13.05;81.22;96843.79;1723524;79;20964;-89
2022/09/01 03:14:16;;;;;;;2.52;1.30;;;;;;;13.04;81.45;96844.28;1748144;82;21044;-89
2022/09/01 03:16:42;;;;;;;3.12;1.45;;;;;;;13.03;81.34;96840.56;1748061;81;21075;-88
2022/09/01 03:19:09;;;;;;;2.83;1.62;;;;;;;13.03;81.64;96837.95;1701257;82;21059;-89
2022/09/01 03:21:40;;;;;;;3.33;1.65;;;;;;;13.01;81.67;96838.11;1738920;79;20996;-89
2022/09/01 03:24:13;;;;;;;3.90;1.77;;;;;;;13.01;81.71;96839.91;1737319;79;21043;-88
2022/09/01 03:26:40;;;;;;;3.35;2.00;;;;;;;13.01;81.88;96838.11;1743463;80;20997;-88
2022/09/01 03:29:07;;;;;;;3.12;1.45;;;;;;;13.04;81.86;96835.66;1737090;80;21040;-88
2022/09/01 03:31:34;;;;;;;4.35;1.80;;;;;;;13.06;82.02;96831.86;1721744;82;21371;-88
2022/09/01 03:34:02;;;;;;;3.15;2.17;;;;;;;13.03;82.20;96825.72;1747209;81;21024;-88
2022/09/01 03:36:28;;;;;;;3.95;1.75;;;;;;;13.00;82.18;96834.39;1747131;81;21036;-89
2022/09/01 03:38:56;;;;;;;4.92;2.40;;;;;;;12.93;82.29;96826.51;1729619;82;20987;-88
2022/09/01 03:41:25;;;;;;;3.67;1.65;;;;;;;12.89;82.43;96828.69;1756331;81;20964;-89
2022/09/01 03:43:57;;;;;;;3.40;1.27;;;;;;;12.86;82.58;96828.25;1756562;81;20960;-88
2022/09/01 03:46:24;;;;;;;5.87;1.80;;;;;;;12.86;82.81;96829.06;1730053;81;21028;-88
2022/09/01 03:49:14;;;;;;;3.00;1.52;;;;;;;12.84;82.80;96831.02;1756341;81;21019;-88
2022/09/01 03:51:38;;;;;;;3.98;1.60;;;;;;;12.75;82.92;96815.69;1728813;82;21009;-88
2022/09/01 03:54:05;;;;;;;3.87;1.57;;;;;;;12.81;82.98;96828.78;1756466;81;20959;-88
2022/09/01 03:56:32;;;;;;;2.17;1.57;;;;;;;12.81;83.17;96834.00;1756324;81;20976;-89
2022/09/01 03:58:58;;;;;;;4.30;1.27;;;;;;;12.81;83.46;96830.59;1700603;81;21008;-88
2022/09/01 04:01:26;;;;;;;2.25;1.45;;;;;;;12.81;83.60;96826.67;1746499;82;20988;-88
2022/09/01 04:03:52;;;;;;;3.87;2.08;;;;;;;12.84;83.60;96835.42;1749162;80;20990;-88
2022/09/01 04:06:20;;;;;;;5.45;1.65;;;;;;;12.87;83.58;96833.28;1753496;82;20995;-89
2022/09/01 04:08:48;;;;;;;3.75;1.60;;;;;;;12.87;83.83;96833.78;1729458;81;21051;-89
2022/09/01 04:11:17;;;;;;;4.75;1.80;;;;;;;12.85;83.98;96831.36;1738378;82;20981;-89
2022/09/01 04:13:46;;;;;;;5.10;2.40;;;;;;;12.84;84.16;96832.82;1755164;80;20960;-89
2022/09/01 04:19:19;;;;;;;6.87;5.10;;;;;;;12.81;84.23;96832.70;1756483;81;20972;-89
2022/09/01 04:21:49;;;;;;;6.30;4.25;;;;;;;12.80;84.12;96828.97;1707597;82;21025;-89
2022/09/01 04:24:15;;;;;;;5.65;4.22;;;;;;;12.80;84.21;96832.88;1756472;81;20976;-88
2022/09/01 04:27:06;;;;;;;6.65;4.00;;;;;;;12.80;84.37;96836.30;1754669;81;20952;-88
2022/09/01 04:29:32;;;;;;;6.25;3.70;;;;;;;12.82;84.45;96837.41;1732478;81;20996;-88
2022/09/01 04:32:04;;;;;;;4.50;3.55;;;;;;;12.81;84.47;96837.11;1752590;81;20999;-88
2022/09/01 04:34:36;;;;;;;4.22;2.40;;;;;;;12.78;84.58;96839.59;1721911;82;22138;-88
2022/09/01 04:37:02;;;;;;;4.22;2.85;;;;;;;12.76;84.65;96845.48;1736882;82;20971;-88
2022/09/01 04:39:28;;;;;;;3.83;2.05;;;;;;;12.75;84.63;96837.36;1724225;82;20991;-88
2022/09/01 04:41:55;;;;;;;5.20;2.33;;;;;;;12.78;84.70;96840.09;1746785;82;21060;-88
2022/09/01 04:44:21;;;;;;;4.65;1.92;;;;;;;12.80;84.80;96832.88;1742249;82;21016;-88
2022/09/01 04:46:47;;;;;;;4.15;2.25;;;;;;;12.82;84.95;96834.31;1750448;81;21000;-88
2022/09/01 04:49:18;;;;;;;4.60;1.67;;;;;;;12.83;84.96;96842.44;1731439;82;21288;-88
2022/09/01 04:51:43;;;;;;;2.50;1.60;;;;;;;12.82;84.89;96837.41;1734695;82;20996;-87
2022/09/01 04:54:12;;;;;;;2.60;1.67;;;;;;;12.82;84.98;96836.11;1712417;82;20937;-88
2022/09/01 04:56:38;;;;;;;2.65;1.32;;;;;;;12.82;85.11;96839.52;1736896;81;21369;-89
2022/09/01 04:59:05;;;;;;;2.60;1.50;;;;;;;12.86;85.30;96839.98;1718483;82;21270;-88
2022/09/01 05:01:41;;;;;;;2.22;1.57;;;;;;;12.90;85.33;96838.62;1701424;82;21027;-88
2022/09/01 05:04:00;;;;;;;4.12;1.62;;;;;;;12.91;85.09;96842.34;1703258;84;21409;-87
2022/09/01 05:06:27;;;;;;;3.58;1.60;;;;;;;12.92;85.16;96845.27;1745917;82;21012;-88
2022/09/01 05:08:56;;;;;;;2.58;1.65;;;;;;;12.96;85.05;96847.00;1732724;82;21003;-87
2022/09/01 05:11:22;;;;;;;6.72;2.65;;;;;;;12.99;85.26;96851.84;1722895;82;20940;-88
2022/09/01 05:13:48;;;;;;;3.70;1.75;;;;;;;12.99;85.14;96855.75;1722831;82;21303;-88
2022/09/01 05:16:20;;;;;;;2.52;1.62;;;;;;;12.99;85.20;96845.31;1747993;82;20987;-88
2022/09/01 05:18:47;;;;;;;3.22;1.87;;;;;;;12.99;85.41;96847.92;1752697;81;21015;-88
2022/09/01 05:21:21;;;;;;;1.72;1.32;;;;;;;13.00;85.25;96844.32;1747311;81;21019;-88
2022/09/01 05:23:48;;;;;;;3.47;1.82;;;;;;;13.03;85.69;96851.80;1738270;82;21059;-87
2022/09/01 05:26:17;;;;;;;3.17;1.65;;;;;;;13.09;85.92;96848.94;1747356;81;21043;-88
2022/09/01 05:28:44;;;;;;;2.85;2.00;;;;;;;13.11;85.79;96849.06;1738086;82;21013;-88
2022/09/01 05:31:11;;;;;;;3.77;1.70;;;;;;;13.12;85.93;96844.65;1754048;79;21599;-88
2022/09/01 05:33:44;;;;;;;4.03;2.02;;;;;;;13.11;85.89;96837.32;1755117;80;21024;-87
2022/09/01 05:36:13;;;;;;;;;;;;;;;13.12;86.04;96845.45;1736570;81;21402;-88
2022/09/01 05:38:41;;;;;;;4.25;2.37;;;;;;;13.13;86.15;96845.77;1712458;82;20119;-88
2022/09/01 05:41:08;;;;;;;5.37;3.52;;;;;;;13.14;86.20;96842.66;1752719;81;20972;-88
2022/09/01 05:43:34;;;;;;;4.00;2.87;;;;;;;13.18;86.43;96836.94;1750391;81;20958;-87
2022/09/01 05:46:02;;;;;;;4.37;3.02;;;;;;;13.21;86.48;96839.16;1755690;80;20993;-87
2022/09/01 05:48:30;;;;;;;3.65;2.90;;;;;;;13.27;86.62;96842.81;1755022;81;20924;-87
2022/09/01 05:50:58;;;;;;;5.03;3.00;;;;;;;13.31;86.74;96834.92;1742425;81;20984;-87
2022/09/01 05:53:29;;;;;;;5.15;2.50;;;;;;;13.35;86.80;96841.90;1711946;82;21047;-85
2022/09/01 05:55:56;;;;;;;3.87;2.67;;;;;;;13.35;86.89;96843.20;1732659;81;20968;-86
2022/09/01 05:58:26;;;;;;;5.72;3.40;;;;;;;13.37;87.02;96847.73;1753766;82;21385;-87
2022/09/01 06:00:53;;;;;;;4.15;2.25;;;;;;;13.37;86.80;96848.54;1750142;81;21413;-87
2022/09/01 06:03:20;;;;;;;5.00;3.27;;;;;;;13.41;87.35;96845.05;1754855;81;20959;-86
2022/09/01 06:05:47;;;;;;;4.08;2.77;;;;;;;13.44;87.32;96855.11;1749370;81;21022;-87
2022/09/01 06:08:13;;;;;;;7.45;2.37;;;;;;;13.46;87.08;96853.92;1732963;81;20972;-86
2022/09/01 06:10:40;;;;;;;3.37;2.10;;;;;;;13.48;87.14;96851.93;1713519;82;20980;-86
2022/09/01 06:13:07;;;;;;;3.70;1.90;;;;;;;13.50;87.16;96847.36;1752729;80;20985;-87
2022/09/01 06:15:37;;;;;;;3.40;1.30;;;;;;;13.52;87.29;96849.77;1751922;80;20944;-87
2022/09/01 06:18:02;;;;;;;4.00;1.60;;;;;;;13.51;87.32;96848.97;1725067;82;21004;-87
2022/09/01 06:20:28;;;;;;;5.83;2.30;;;;;;;13.52;87.40;96852.38;1738385;80;21004;-86
2022/09/01 06:22:54;;;;;;;4.05;1.80;;;;;;;13.51;87.09;96853.38;1729930;82;20945;-86
2022/09/01 06:25:20;;;;;;;4.95;1.85;;;;;;;13.54;87.12;96851.69;1726785;82;20960;-87
2022/09/01 06:27:46;;;;;;;3.20;1.55;;;;;;;13.58;87.33;96851.63;1733766;81;20995;-86
2022/09/01 06:30:19;;;;;;;6.92;3.33;;;;;;;13.65;87.82;96854.27;1754645;80;20999;-87
2022/09/01 06:32:43;;;;;;;4.85;3.05;;;;;;;13.71;87.24;96852.22;1735351;82;21009;-87
2022/09/01 06:35:14;;;;;;;4.53;2.90;;;;;;;13.72;85.81;96859.06;1745491;80;21006;-87
2022/09/01 06:37:42;;;;;;;4.00;2.37;;;;;;;13.74;86.34;96858.37;1712969;82;20944;-87
2022/09/01 06:40:15;;;;;;;4.65;2.37;;;;;;;13.75;85.89;96863.90;1729224;81;21054;-86
2022/09/01 06:42:37;;;;;;;4.40;3.12;;;;;;;13.79;86.09;96869.05;1755216;80;20917;-86
2022/09/01 06:45:09;;;;;;;6.08;2.90;;;;;;;13.84;85.54;96873.72;1754878;81;21350;-87
2022/09/01 06:47:31;;;;;;;7.45;3.70;;;;;;;13.87;85.13;96874.14;1715616;82;20954;-87
2022/09/01 06:49:58;;;;;;;6.12;3.02;;;;;;;13.90;84.32;96872.95;1734653;82;20956;-87
2022/09/01 06:52:24;;;;;;;6.50;3.45;;;;;;;13.89;84.44;96873.95;1728918;81;20944;-87
2022/09/01 06:54:53;;;;;;;3.22;2.47;;;;;;;13.89;85.05;96876.56;1735168;81;21011;-87
2022/09/01 06:57:21;;;;;;;5.03;3.02;;;;;;;13.94;85.38;96876.79;1734918;81;21032;-87
2022/09/01 06:59:47;;;;;;;3.92;2.72;;;;;;;13.94;84.94;96874.98;1746036;81;21011;-87
2022/09/01 07:02:15;;;;;;;5.30;2.90;;;;;;;14.01;85.09;96877.66;1722044;82;20964;-87
2022/09/01 07:04:45;;;;;;;5.62;2.80;;;;;;;14.06;85.21;96880.50;1750382;80;20954;-87
2022/09/01 07:07:12;;;;;;;4.40;3.02;;;;;;;14.10;84.42;96877.80;1772839;80;20916;-87
2022/09/01 07:09:39;;;;;;;5.08;2.67;;;;;;;14.12;84.53;96868.77;1759353;79;20983;-87
2022/09/01 07:12:06;;;;;;;4.12;3.10;;;;;;;14.18;84.79;96875.05;1725806;82;20949;-87
2022/09/01 07:14:32;;;;;;;8.38;3.22;;;;;;;14.22;84.64;96872.36;1753795;80;20928;-87
2022/09/01 07:16:58;;;;;;;4.58;3.20;;;;;;;14.28;84.68;96878.61;1736740;82;20951;-87
2022/09/01 07:19:24;;;;;;;8.70;3.12;;;;;;;14.31;84.54;96876.91;1729444;80;21362;-87
2022/09/01 07:21:51;;;;;;;5.30;3.10;;;;;;;14.38;84.45;96877.77;1741276;82;21046;-86
2022/09/01 07:24:19;;;;;;;4.70;2.95;;;;;;;14.40;83.73;96884.42;1707207;83;20953;-87
2022/09/01 07:26:48;;;;;;;6.03;3.40;;;;;;;14.40;82.90;96882.30;1754880;81;21023;-87
2022/09/01 07:29:13;;;;;;;3.85;2.42;;;;;;;14.38;82.89;96882.50;1787853;80;20968;-87
2022/09/01 07:31:42;;;;;;;5.58;3.08;;;;;;;14.41;83.27;96879.50;1744616;81;21354;-87
2022/09/01 07:34:11;;;;;;;4.42;3.00;;;;;;;14.45;83.04;96886.98;1741341;82;21023;-87
2022/09/01 07:36:39;;;;;;;7.92;3.02;;;;;;;14.47;83.31;96881.86;1730019;81;20936;-87
2022/09/01 07:39:05;;;;;;;4.90;2.83;;;;;;;14.49;82.91;96885.61;1747206;81;21011;-87
2022/09/01 07:41:33;;;;;;;4.83;2.95;;;;;;;14.55;83.22;96884.83;1729174;81;20951;-87
2022/09/01 07:44:00;;;;;;;8.10;2.60;;;;;;;14.63;83.33;96884.65;1747290;82;21004;-87
2022/09/01 07:46:26;;;;;;;4.30;2.55;;;;;;;14.73;82.97;96885.61;1730813;81;21050;-86
2022/09/01 07:48:53;;;;;;;4.05;2.80;;;;;;;14.81;83.05;96891.49;1730978;82;21035;-87
2022/09/01 07:51:21;;;;;;;12.25;3.45;;;;;;;14.86;83.63;96893.01;1722859;82;20983;-87
2022/09/01 07:53:48;;;;;;;5.15;2.50;;;;;;;14.91;82.75;96891.91;1750805;82;20956;-87
2022/09/01 07:56:17;;;;;;;3.37;2.83;;;;;;;14.97;83.13;96891.64;1737956;82;20983;-87
2022/09/01 07:58:44;;;;;;;6.37;2.52;;;;;;;15.04;81.50;96887.73;1744360;82;20933;-87
2022/09/01 08:01:18;;;;;;;4.75;2.92;;;;;;;15.13;82.22;96887.84;1744083;81;21384;-87
2022/09/01 08:03:47;;;;;;;3.72;2.37;;;;;;;15.19;81.33;96887.88;1751151;82;20992;-87
2022/09/01 08:06:18;;;;;;;5.47;2.37;;;;;;;15.28;81.25;96884.05;1725223;81;21501;-87
2022/09/01 08:08:41;;;;;;;3.37;1.90;;;;;;;15.31;80.26;96888.11;1735414;82;21291;-86
2022/09/01 08:11:07;;;;;;;2.12;1.82;;;;;;;15.33;79.63;96887.40;1748377;81;21068;-86
2022/09/01 08:13:36;;;;;;;2.83;1.70;;;;;;;15.38;76.30;96888.10;1749714;82;20998;-88
2022/09/01 08:16:04;;;;;;;3.60;2.00;;;;;;;15.39;76.40;96891.02;1737968;82;21012;-87
2022/09/01 08:18:30;;;;;;;2.52;1.57;;;;;;;15.41;76.69;96892.44;1740987;82;21369;-87
2022/09/01 08:20:56;;;;;;;3.40;1.80;;;;;;;15.42;75.97;96895.86;1750375;82;21081;-87
2022/09/01 08:23:25;;;;;;;2.10;1.50;;;;;;;15.47;76.11;96895.58;1743464;82;20988;-87
2022/09/01 08:25:51;;;;;;;3.87;1.67;;;;;;;15.54;76.11;96895.08;1741282;81;21105;-87
2022/09/01 08:28:16;;;;;;;2.25;1.62;;;;;;;15.69;76.04;96897.53;1732469;82;21410;-86
2022/09/01 08:30:42;;;;;;;5.58;1.60;;;;;;;15.69;76.04;96897.53;1734511;81;20968;-87
2022/09/01 08:33:12;;;;;;;3.25;1.67;;;;;;;15.78;76.32;96909.44;1735641;82;20993;-86
2022/09/01 08:35:39;;;;;;;2.85;1.67;;;;;;;15.90;76.45;96900.45;1722765;82;20963;-87
2022/09/01 08:38:05;;;;;;;2.15;1.87;;;;;;;15.99;75.17;96908.42;1727636;82;20957;-87
2022/09/01 08:40:31;;;;;;;3.52;1.87;;;;;;;16.06;74.39;96902.66;1734654;82;20972;-87
2022/09/01 08:43:14;;;;;;;3.42;1.70;;;;;;;16.15;75.43;96908.52;1747874;82;21007;-87
2022/09/01 08:45:52;;;;;;;3.58;1.90;;;;;;;16.18;73.84;96910.21;1741029;82;21412;-86
2022/09/01 08:48:42;;;;;;;3.25;1.70;;;;;;;16.20;73.45;96904.77;1751230;82;20980;-87
2022/09/01 08:51:22;;;;;;;3.58;2.02;;;;;;;16.24;73.65;96907.78;1740065;82;20953;-87
2022/09/01 08:54:20;;;;;;;2.98;1.60;;;;;;;16.29;73.19;96906.68;1732750;82;20948;-87
2022/09/01 08:56:47;;;;;;;5.08;1.95;;;;;;;16.40;74.54;96908.66;1742945;82;21111;-86
2022/09/01 08:59:14;;;;;;;3.65;2.00;;;;;;;16.51;73.42;96897.54;1689893;83;20997;-87
2022/09/01 09:01:54;;;;;;;2.95;1.77;;;;;;;16.53;72.76;96906.00;1691595;82;21075;-87
2022/09/01 09:04:51;;;;;;;2.37;1.80;;;;;;;16.53;72.08;96909.94;1740421;82;20993;-88
2022/09/01 09:07:32;;;;;;;2.37;1.50;;;;;;;16.57;72.04;96907.20;1715889;81;21037;-87
2022/09/01 09:10:15;;;;;;;2.75;1.57;;;;;;;16.65;72.09;96906.98;1687816;83;20953;-87
2022/09/01 09:13:05;;;;;;;1.95;1.30;;;;;;;16.69;72.44;96907.41;1710748;82;21049;-88
2022/09/01 09:15:53;;;;;;;2.30;1.55;;;;;;;16.73;73.18;96909.91;1749475;82;20979;-90
2022/09/01 09:18:48;;;;;;;2.60;1.55;;;;;;;16.76;71.95;96913.45;1695268;83;21029;-90
2022/09/01 09:21:22;;;;;;;2.92;1.50;;;;;;;16.77;71.37;96905.37;1695512;83;21068;-89
2022/09/01 09:23:56;;;;;;;3.60;1.30;;;;;;;16.86;71.07;96901.18;1710874;83;20988;-89
2022/09/01 09:26:22;;;;;;;2.35;1.30;;;;;;;16.92;70.61;96901.17;1690949;83;20988;-89
2022/09/01 09:28:48;;;;;;;3.52;1.57;;;;;;;16.98;69.79;96911.33;1719017;82;20972;-90
2022/09/01 09:31:30;;;;;;;4.15;1.52;;;;;;;16.92;69.90;96885.42;1735304;82;21036;-87
2022/09/01 09:33:56;;;;;;;2.65;1.72;;;;;;;17.08;70.79;96910.36;1727324;83;21012;-87
2022/09/01 09:36:35;;;;;;;2.15;1.40;;;;;;;17.16;69.37;96914.58;1726047;83;21103;-89
2022/09/01 09:39:15;;;;;;;2.35;1.47;;;;;;;17.20;70.95;96904.75;1729320;83;21286;-88
2022/09/01 09:41:41;;;;;;;2.58;1.50;;;;;;;17.26;68.98;96907.86;1730875;83;21019;-88
2022/09/01 09:44:22;;;;;;;1.92;1.00;;;;;;;17.30;70.88;96916.12;1703628;83;20936;-88
2022/09/01 09:46:47;;;;;;;2.15;0.98;;;;;;;17.38;70.47;96911.91;1723986;83;20967;-89
2022/09/01 09:49:26;;;;;;;2.70;1.00;;;;;;;17.44;68.70;96913.72;1732614;83;21004;-88
2022/09/01 09:51:59;;;;;;;3.25;1.20;;;;;;;17.47;67.82;96917.73;1732413;83;20999;-89
2022/09/01 09:54:28;;;;;;;2.15;1.00;;;;;;;17.52;66.44;96906.08;1713167;83;20941;-89
2022/09/01 09:57:15;;;;;;;1.90;1.32;;;;;;;17.54;66.30;96913.23;1721851;83;20984;-89
2022/09/01 09:59:58;;;;;;;3.35;1.10;;;;;;;17.60;67.31;96911.09;1706798;83;20983;-89
2022/09/01 10:02:36;;;;;;;2.00;1.10;;;;;;;17.63;67.32;96908.83;1674585;84;21513;-89
2022/09/01 10:05:30;;;;;;;2.27;0.98;;;;;;;17.68;66.31;96907.70;1735142;81;20973;-89
2022/09/01 10:07:56;;;;;;;3.83;0.90;;;;;;;17.77;66.84;96903.00;1753962;81;20964;-89
2022/09/01 10:10:45;;;;;;;2.37;1.10;;;;;;;17.89;67.23;96899.15;1717467;83;20968;-89
2022/09/01 10:13:14;;;;;;;1.47;1.00;;;;;;;18.00;65.58;96907.66;1731632;83;20940;-89
2022/09/01 10:15:42;;;;;;;1.85;0.88;;;;;;;18.13;65.24;96894.40;1729640;83;21004;-89
2022/09/01 10:18:13;;;;;;;1.45;0.90;;;;;;;18.35;66.57;96900.55;1725265;83;20983;-88
2022/09/01 10:20:47;;;;;;;1.77;1.20;;;;;;;18.44;65.36;96901.89;1726723;83;20996;-88
2022/09/01 10:23:13;;;;;;;1.62;0.72;;;;;;;18.29;65.36;96901.73;1708175;83;20978;-89
2022/09/01 10:25:39;;;;;;;1.52;0.70;;;;;;;18.13;66.95;96890.97;1721229;83;20980;-89
2022/09/01 10:28:15;;;;;;;1.87;0.75;;;;;;;17.95;65.29;96898.30;1725578;83;20980;-88
2022/09/01 10:30:44;;;;;;;2.25;0.90;;;;;;;17.81;66.91;96908.12;1725642;83;20994;-88
2022/09/01 10:33:13;;;;;;;2.22;1.10;;;;;;;17.69;66.45;96909.82;1725812;83;21008;-88
2022/09/01 10:35:43;;;;;;;1.25;0.95;;;;;;;17.55;66.14;96903.02;1730457;83;21083;-89
2022/09/01 10:38:19;;;;;;;1.98;1.10;;;;;;;17.38;66.21;96904.84;1710483;83;21010;-88
2022/09/01 10:40:49;;;;;;;1.92;0.90;;;;;;;17.31;67.92;96906.71;1722920;83;20990;-88
2022/09/01 10:43:27;;;;;;;1.37;0.88;;;;;;;17.25;67.48;96901.52;1733160;81;20983;-88
2022/09/01 10:45:53;;;;;;;2.00;0.93;;;;;;;17.19;68.12;96905.77;1728424;83;21016;-88
2022/09/01 10:48:30;;;;;;;1.50;0.98;;;;;;;17.11;68.75;96898.15;1730693;83;20952;-88
2022/09/01 10:51:17;;;;;;;1.52;0.95;;;;;;;17.09;69.29;96902.30;1706518;83;21016;-88
2022/09/01 10:53:49;;;;;;;2.92;1.00;;;;;;;17.11;70.46;96898.15;1666953;86;21420;-88
2022/09/01 10:56:37;;;;;;;1.45;0.65;;;;;;;17.14;69.36;96900.34;1714755;81;20968;-88
2022/09/01 10:59:27;;;;;;;1.60;0.90;;;;;;;17.16;68.08;96895.69;1715342;81;21059;-88
2022/09/01 11:02:05;;;;;;;1.60;1.00;;;;;;;17.15;68.49;96898.52;1759017;81;21081;-88
2022/09/01 11:04:42;;;;;;;3.08;1.15;;;;;;;17.16;69.48;96902.77;1704280;82;21051;-88
2022/09/01 11:07:34;;;;;;;2.45;0.80;;;;;;;17.19;69.67;96901.02;1714643;81;21080;-88
2022/09/01 11:10:21;;;;;;;1.40;0.70;;;;;;;17.20;66.15;96903.94;1732334;81;20981;-88
2022/09/01 11:13:04;;;;;;;2.12;0.68;;;;;;;17.17;67.31;96901.74;1725981;82;21015;-89
2022/09/01 11:15:41;;;;;;;2.02;0.72;;;;;;;17.20;68.09;96902.12;1727178;81;20976;-88
2022/09/01 11:18:16;;;;;;;2.05;0.70;;;;;;;17.25;69.12;96897.06;1732057;83;21047;-88
2022/09/01 11:20:43;;;;;;;2.12;0.80;;;;;;;17.27;67.82;96905.53;1698526;83;20994;-89
2022/09/01 11:23:30;;;;;;;1.35;0.75;;;;;;;17.32;69.71;96903.06;1723494;83;21063;-89
2022/09/01 11:26:02;;;;;;;4.28;1.10;;;;;;;17.36;70.10;96895.05;1717577;80;20930;-89
2022/09/01 11:28:34;;;;;;;1.55;0.70;;;;;;;17.35;68.31;96894.77;1699309;84;21037;-89
2022/09/01 11:31:12;;;;;;;2.75;0.80;;;;;;;17.40;69.25;96892.80;1712234;84;21359;-88
2022/09/01 11:34:12;;;;;;;1.90;0.75;;;;;;;17.47;68.16;96899.34;1680287;84;21083;-89
2022/09/01 11:36:52;;;;;;;0.95;0.50;;;;;;;17.77;66.82;96899.06;1703108;84;21021;-89
2022/09/01 11:39:30;;;;;;;1.80;0.53;;;;;;;18.11;64.90;96886.44;1698452;84;21055;-89
2022/09/01 11:42:12;;;;;;;2.10;0.60;;;;;;;18.46;65.62;96886.17;1706741;84;21025;-88
2022/09/01 11:44:52;;;;;;;1.20;0.50;;;;;;;18.79;64.35;96883.20;1707444;84;21000;-88
2022/09/01 11:47:31;;;;;;;1.70;0.78;;;;;;;19.06;64.97;96888.95;1698944;83;21036;-89
2022/09/01 11:50:08;;;;;;;1.50;0.40;;;;;;;19.37;64.31;96881.33;1681850;84;21320;-89
2022/09/01 11:52:36;;;;;;;1.32;0.45;;;;;;;19.63;60.99;96892.52;1684458;84;20987;-89
2022/09/01 11:55:03;;;;;;;1.02;0.57;;;;;;;19.75;58.84;96880.97;1698329;84;20961;-89